Time;durP1;ratioP1;P1;durP2;ratioP2;P2;SDS_P1;SDS_P2;PMS_P1;PMS_P2;Temp;Humidity;BMP_temperature;BMP_pressure;BME280_temperature;BME280_humidity;BME280_pressure;Samples;Min_cycle;Max_cycle;Signal;HPM_P1;HPM_P2
2022/06/27 00:00:02;;;;;;;4.35;2.87;;;;;;;17.40;90.41;100729.08;1788317;80;21131;-58
2022/06/27 00:02:32;;;;;;;3.45;2.10;;;;;;;17.39;90.41;100726.03;1786601;80;21186;-58
2022/06/27 00:05:01;;;;;;;3.47;2.20;;;;;;;17.38;90.44;100724.34;1788091;80;21147;-58
2022/06/27 00:07:29;;;;;;;4.80;2.50;;;;;;;17.38;90.44;100723.86;1788195;80;21072;-58
2022/06/27 00:09:58;;;;;;;2.60;1.92;;;;;;;17.36;90.45;100725.28;1788270;80;21134;-58
2022/06/27 00:12:26;;;;;;;6.25;2.40;;;;;;;17.36;90.44;100723.11;1788264;80;21146;-58
2022/06/27 00:14:55;;;;;;;3.67;1.92;;;;;;;17.35;90.45;100721.39;1788267;80;21073;-58
2022/06/27 00:17:24;;;;;;;3.70;2.12;;;;;;;17.35;90.47;100732.91;1788236;80;21033;-59
2022/06/27 00:19:52;;;;;;;4.85;2.85;;;;;;;17.34;90.51;100729.86;1788298;80;21206;-58
2022/06/27 00:22:21;;;;;;;3.67;2.70;;;;;;;17.34;90.53;100725.88;1788272;80;21128;-58
2022/06/27 00:24:50;;;;;;;6.08;3.08;;;;;;;17.35;90.54;100720.94;1788292;79;21627;-58
2022/06/27 00:27:19;;;;;;;11.70;4.65;;;;;;;17.36;90.50;100724.44;1788169;80;21143;-58
2022/06/27 00:29:48;;;;;;;8.30;4.12;;;;;;;17.36;90.50;100722.63;1788051;79;21621;-58
2022/06/27 00:32:17;;;;;;;5.53;3.12;;;;;;;17.36;90.54;100717.30;1788020;80;21245;-60
2022/06/27 00:34:46;;;;;;;6.67;2.30;;;;;;;17.38;90.55;100719.02;1788035;80;21601;-58
2022/06/27 00:37:15;;;;;;;5.87;2.58;;;;;;;17.36;90.55;100707.98;1788021;79;21123;-58
2022/06/27 00:39:45;;;;;;;4.58;2.83;;;;;;;17.36;90.56;100713.31;1788003;80;21100;-58
2022/06/27 00:42:14;;;;;;;4.50;2.70;;;;;;;17.36;90.54;100714.64;1787864;80;21139;-58
2022/06/27 00:44:44;;;;;;;3.83;2.40;;;;;;;17.36;90.55;100714.64;1788018;80;21068;-58
2022/06/27 00:47:15;;;;;;;7.25;2.60;;;;;;;17.36;90.55;100707.98;1787929;80;21060;-58
2022/06/27 00:49:43;;;;;;;6.70;2.87;;;;;;;17.36;90.58;100708.47;1787916;80;21065;-58
2022/06/27 00:52:14;;;;;;;5.03;2.67;;;;;;;17.36;90.57;100706.66;1788015;80;21070;-58
2022/06/27 00:54:46;;;;;;;3.10;2.15;;;;;;;17.36;90.58;100705.33;1787926;80;21049;-58
2022/06/27 00:57:17;;;;;;;7.20;3.43;;;;;;;17.36;90.60;100709.80;1788292;79;21170;-58
2022/06/27 00:59:46;;;;;;;4.55;2.83;;;;;;;17.37;90.63;100707.50;1787848;80;21081;-58
2022/06/27 01:02:15;;;;;;;6.92;3.10;;;;;;;17.36;90.63;100700.49;1787920;80;21041;-58
2022/06/27 01:04:43;;;;;;;4.80;3.08;;;;;;;17.36;90.64;100697.83;1787925;80;21036;-58
2022/06/27 01:07:13;;;;;;;4.95;2.62;;;;;;;17.36;90.65;100693.34;1788002;80;21057;-58
2022/06/27 01:09:43;;;;;;;4.95;3.05;;;;;;;17.36;90.66;100701.34;1787737;80;21507;-58
2022/06/27 01:12:12;;;;;;;5.05;2.83;;;;;;;17.36;90.67;100706.66;1787991;79;21065;-58
2022/06/27 01:14:41;;;;;;;4.60;3.08;;;;;;;17.36;90.68;100705.33;1787918;80;21507;-58
2022/06/27 01:17:12;;;;;;;5.67;3.10;;;;;;;17.36;90.70;100705.33;1787942;80;21495;-58
2022/06/27 01:19:42;;;;;;;7.28;4.00;;;;;;;17.36;90.72;100701.34;1787958;80;21057;-58
2022/06/27 01:22:12;;;;;;;6.00;3.60;;;;;;;17.36;90.76;100705.81;1787759;79;21487;-58
2022/06/27 01:24:41;;;;;;;10.30;4.55;;;;;;;17.35;90.79;100704.09;1787906;80;21439;-58
2022/06/27 01:27:10;;;;;;;9.58;4.20;;;;;;;17.34;90.81;100695.75;1778773;80;21099;-60
2022/06/27 01:29:39;;;;;;;9.35;4.55;;;;;;;17.34;90.81;100697.92;1759188;79;21540;-60
2022/06/27 01:32:10;;;;;;;9.20;4.37;;;;;;;17.34;90.83;100697.92;1741965;82;21673;-59
2022/06/27 01:34:39;;;;;;;9.08;4.15;;;;;;;17.34;90.86;100702.41;1769388;81;21535;-60
2022/06/27 01:37:08;;;;;;;9.93;4.45;;;;;;;17.35;90.84;100702.77;1770920;80;21198;-62
2022/06/27 01:39:44;;;;;;;11.63;4.78;;;;;;;17.33;90.84;100704.19;1776277;79;21215;-62
2022/06/27 01:42:12;;;;;;;11.60;4.65;;;;;;;17.34;90.84;100703.73;1766783;81;21056;-59
2022/06/27 01:44:42;;;;;;;8.73;4.40;;;;;;;17.33;90.92;100703.35;1748391;81;21189;-59
2022/06/27 01:47:12;;;;;;;7.85;4.17;;;;;;;17.33;90.93;100699.36;1796805;80;21581;-59
2022/06/27 01:49:42;;;;;;;9.33;4.90;;;;;;;17.33;90.90;100702.02;1744130;81;21206;-60
2022/06/27 01:52:14;;;;;;;9.53;4.58;;;;;;;17.34;90.91;100707.73;1770637;81;21067;-59
2022/06/27 01:54:44;;;;;;;8.88;4.58;;;;;;;17.32;90.87;100713.16;1741857;82;21132;-59
2022/06/27 01:57:20;;;;;;;9.33;4.95;;;;;;;17.33;90.89;100716.17;1741804;82;21521;-59
2022/06/27 01:59:50;;;;;;;9.33;4.75;;;;;;;17.33;90.87;100717.50;1741580;82;21648;-59
2022/06/27 02:02:20;;;;;;;16.95;6.25;;;;;;;17.33;90.88;100717.98;1770732;81;21194;-59
2022/06/27 02:04:49;;;;;;;10.78;5.58;;;;;;;17.33;90.95;100720.16;1770613;81;21080;-59
2022/06/27 02:07:19;;;;;;;10.95;6.03;;;;;;;17.34;90.99;100719.70;1741378;81;21148;-59
2022/06/27 02:09:48;;;;;;;13.78;6.50;;;;;;;17.33;91.04;100730.80;1770688;81;21530;-59
2022/06/27 02:12:19;;;;;;;10.38;5.08;;;;;;;17.35;91.10;100733.37;1741273;82;21148;-59
2022/06/27 02:14:52;;;;;;;11.45;5.87;;;;;;;17.35;91.11;100728.92;1741709;82;21220;-59
2022/06/27 02:17:23;;;;;;;11.93;6.42;;;;;;;17.35;91.07;100720.94;1741828;81;21585;-59
2022/06/27 02:19:52;;;;;;;17.07;6.25;;;;;;;17.36;91.03;100727.95;1740901;82;21602;-59
2022/06/27 02:22:21;;;;;;;15.58;7.20;;;;;;;17.37;91.06;100731.45;1764277;81;21098;-59
2022/06/27 02:24:50;;;;;;;12.30;6.50;;;;;;;17.37;91.17;100735.45;1770532;81;21147;-59
2022/06/27 02:27:20;;;;;;;19.70;7.35;;;;;;;17.38;91.25;100725.67;1770580;81;21589;-59
2022/06/27 02:29:49;;;;;;;17.40;7.70;;;;;;;17.38;91.29;100722.52;1770922;79;21241;-59
2022/06/27 02:32:17;;;;;;;14.58;7.35;;;;;;;17.39;91.30;100724.70;1773778;81;21585;-59
2022/06/27 02:34:48;;;;;;;13.03;6.25;;;;;;;17.39;91.32;100728.69;1773580;81;21621;-59
2022/06/27 02:37:18;;;;;;;15.23;6.22;;;;;;;17.39;91.33;100721.55;1773421;80;21080;-59
2022/06/27 02:39:49;;;;;;;12.20;5.67;;;;;;;17.38;91.39;100722.52;1773572;81;21072;-59
2022/06/27 02:42:21;;;;;;;16.75;7.37;;;;;;;17.38;91.44;100725.67;1773666;81;21182;-59
2022/06/27 02:44:50;;;;;;;17.25;6.67;;;;;;;17.38;91.45;100723.86;1773571;81;21150;-59
2022/06/27 02:47:23;;;;;;;13.83;6.80;;;;;;;17.40;91.43;100729.08;1773648;81;21584;-59
2022/06/27 02:49:55;;;;;;;15.90;7.15;;;;;;;17.41;91.39;100728.11;1773905;81;21554;-59
2022/06/27 02:52:35;;;;;;;16.07;6.50;;;;;;;17.40;91.39;100731.26;1773533;81;21526;-59
2022/06/27 02:55:14;;;;;;;24.57;7.85;;;;;;;17.40;91.42;100729.08;1773596;81;21149;-59
2022/06/27 02:57:53;;;;;;;11.53;6.10;;;;;;;17.42;91.42;100729.83;1771972;81;21557;-59
2022/06/27 03:00:23;;;;;;;13.25;5.78;;;;;;;17.43;91.36;100720.41;1773399;81;21130;-59
2022/06/27 03:02:55;;;;;;;14.15;6.72;;;;;;;17.44;91.33;100719.44;1773646;81;21096;-59
2022/06/27 03:05:31;;;;;;;13.78;6.60;;;;;;;17.44;91.33;100721.25;1762763;81;21103;-59
2022/06/27 03:08:00;;;;;;;10.78;5.95;;;;;;;17.45;91.34;100717.16;1773510;81;21072;-60
2022/06/27 03:10:29;;;;;;;12.82;6.47;;;;;;;17.46;91.31;100719.34;1773646;80;21568;-60
2022/06/27 03:12:57;;;;;;;11.10;6.03;;;;;;;17.48;91.28;100718.27;1773604;81;21068;-60
2022/06/27 03:15:26;;;;;;;13.53;5.95;;;;;;;17.49;91.29;100716.48;1773516;81;21068;-59
2022/06/27 03:17:55;;;;;;;11.93;6.22;;;;;;;17.50;91.33;100720.83;1773652;81;21068;-57
2022/06/27 03:20:32;;;;;;;13.10;5.45;;;;;;;17.52;91.38;100721.57;1773506;80;21514;-59
2022/06/27 03:23:15;;;;;;;12.60;5.92;;;;;;;17.56;91.35;100721.76;1772719;81;21145;-61
2022/06/27 03:25:46;;;;;;;11.63;4.90;;;;;;;17.60;91.32;100719.25;1773412;81;21123;-60
2022/06/27 03:28:15;;;;;;;11.12;4.87;;;;;;;17.65;91.28;100722.45;1773538;81;21557;-60
2022/06/27 03:30:45;;;;;;;9.53;4.17;;;;;;;17.68;91.22;100724.04;1770696;79;21542;-61
2022/06/27 03:33:14;;;;;;;10.58;4.67;;;;;;;17.69;91.19;100725.27;1759711;81;21280;-61
2022/06/27 03:35:50;;;;;;;8.40;4.97;;;;;;;17.69;91.14;100727.94;1759041;80;21095;-60
2022/06/27 03:38:39;;;;;;;6.67;4.35;;;;;;;17.71;91.13;100735.33;1759826;80;21218;-61
2022/06/27 03:41:09;;;;;;;9.18;4.70;;;;;;;17.73;91.09;100740.56;1847792;77;21534;-61
2022/06/27 03:43:38;;;;;;;9.10;5.08;;;;;;;17.74;91.05;100752.44;1847831;78;21043;-60
2022/06/27 03:46:06;;;;;;;10.78;5.00;;;;;;;17.77;91.02;100757.18;1847650;78;21126;-60
2022/06/27 03:51:26;;;;;;;8.98;4.28;;;;;;;17.75;91.01;100760.79;1845432;77;21086;-60
2022/06/27 03:53:55;;;;;;;10.68;4.45;;;;;;;17.74;91.00;100760.43;1847878;77;21538;-61
2022/06/27 03:56:24;;;;;;;8.10;4.65;;;;;;;17.72;91.01;100757.48;1847651;77;21076;-61
2022/06/27 03:58:53;;;;;;;13.95;5.12;;;;;;;17.72;91.05;100758.36;1847820;77;21486;-59
2022/06/27 04:01:22;;;;;;;13.48;5.60;;;;;;;17.69;91.09;100767.88;1847707;78;21075;-60
2022/06/27 04:03:51;;;;;;;9.63;4.78;;;;;;;17.68;91.15;100770.15;1847802;78;21648;-59
2022/06/27 04:06:20;;;;;;;10.48;4.75;;;;;;;17.69;91.17;100758.55;1847998;78;21150;-60
2022/06/27 04:08:49;;;;;;;11.38;5.22;;;;;;;17.69;91.17;100755.89;1847883;78;21150;-61
2022/06/27 04:11:18;;;;;;;10.70;5.00;;;;;;;17.70;91.17;100765.57;1847838;77;21060;-60
2022/06/27 04:13:48;;;;;;;7.87;4.55;;;;;;;17.69;91.18;100761.22;1847742;78;21173;-60
2022/06/27 04:16:35;;;;;;;8.53;5.05;;;;;;;17.71;91.19;100765.95;1847785;78;21068;-59
2022/06/27 04:19:21;;;;;;;8.05;4.35;;;;;;;17.71;91.18;100764.62;1847770;76;21166;-61
2022/06/27 04:22:10;;;;;;;11.28;5.05;;;;;;;17.70;91.15;100776.70;1760901;80;21186;-60
2022/06/27 04:24:59;;;;;;;13.20;6.33;;;;;;;17.69;91.16;100779.02;1761050;81;21109;-59
2022/06/27 04:27:35;;;;;;;10.30;5.92;;;;;;;17.67;91.28;100785.77;1808765;78;21098;-60
2022/06/27 04:32:53;;;;;;;9.73;5.30;;;;;;;17.67;91.57;100806.20;1808650;78;21633;-60
2022/06/27 04:35:46;;;;;;;15.35;6.25;;;;;;;17.63;91.76;100788.27;1808717;78;21069;-59
2022/06/27 04:38:17;;;;;;;9.23;5.28;;;;;;;17.65;92.01;100777.04;1785388;79;21547;-57
2022/06/27 04:40:49;;;;;;;11.05;5.17;;;;;;;17.72;91.95;100773.45;1785882;80;21081;-58
2022/06/27 04:43:18;;;;;;;10.38;6.20;;;;;;;17.79;91.83;100775.23;1785990;80;21125;-58
2022/06/27 04:45:49;;;;;;;14.53;5.92;;;;;;;17.85;91.73;100767.69;1785895;80;21602;-58
2022/06/27 04:48:26;;;;;;;12.45;6.40;;;;;;;17.91;91.59;100772.61;1785070;80;21054;-58
2022/06/27 04:50:52;;;;;;;14.50;7.78;;;;;;;17.91;91.64;100774.43;1785799;80;21235;-57
2022/06/27 04:53:21;;;;;;;12.55;5.78;;;;;;;17.89;91.73;100773.66;1785976;80;21065;-58
2022/06/27 04:55:50;;;;;;;13.00;5.35;;;;;;;17.90;91.77;100772.70;1785890;80;21094;-56
2022/06/27 04:58:18;;;;;;;11.00;5.58;;;;;;;17.89;91.82;100763.00;1785989;80;21125;-57
2022/06/27 05:00:47;;;;;;;14.85;6.67;;;;;;;17.90;91.88;100757.57;1785937;80;21139;-57
2022/06/27 05:03:27;;;;;;;10.82;5.22;;;;;;;18.00;91.78;100759.14;1766092;80;21081;-58
2022/06/27 05:05:58;;;;;;;14.03;6.17;;;;;;;18.12;91.67;100758.25;1785938;79;21105;-58
2022/06/27 05:08:26;;;;;;;14.60;6.35;;;;;;;18.28;91.58;100755.86;1785847;79;21160;-60
2022/06/27 05:10:57;;;;;;;8.98;4.87;;;;;;;18.39;91.58;100745.27;1785816;80;21061;-61
2022/06/27 05:13:26;;;;;;;9.33;4.95;;;;;;;18.52;91.52;100746.58;1785924;80;21149;-60
2022/06/27 05:15:56;;;;;;;10.35;4.87;;;;;;;18.63;91.59;100752.47;1785811;80;21145;-60
2022/06/27 05:18:25;;;;;;;10.28;5.80;;;;;;;18.84;91.59;100763.41;1786055;80;21128;-59
2022/06/27 05:20:54;;;;;;;8.80;4.03;;;;;;;19.21;91.57;100768.19;1786003;80;21049;-59
2022/06/27 05:23:23;;;;;;;10.43;4.58;;;;;;;19.60;91.79;100771.47;1785860;80;21528;-60
2022/06/27 05:25:52;;;;;;;7.75;4.33;;;;;;;19.76;91.95;100765.00;1785916;80;21056;-62
2022/06/27 05:28:21;;;;;;;6.20;3.77;;;;;;;19.86;92.05;100777.53;1785793;80;21057;-60
2022/06/27 05:30:49;;;;;;;6.00;3.87;;;;;;;19.85;92.26;100777.64;1785937;79;21089;-59
2022/06/27 05:33:18;;;;;;;6.42;3.40;;;;;;;19.87;92.32;100779.70;1785942;80;21057;-60
2022/06/27 05:35:47;;;;;;;6.65;3.70;;;;;;;19.92;92.34;100781.55;1785826;80;21046;-59
2022/06/27 05:38:16;;;;;;;4.22;2.50;;;;;;;20.01;92.22;100775.48;1785784;79;21618;-59
2022/06/27 05:40:45;;;;;;;5.62;2.35;;;;;;;19.95;92.14;100771.93;1785734;80;21085;-58
2022/06/27 05:43:15;;;;;;;6.35;2.58;;;;;;;19.92;91.97;100772.66;1785888;80;21061;-58
2022/06/27 05:45:44;;;;;;;4.08;2.30;;;;;;;19.98;91.57;100778.38;1785899;80;21563;-59
2022/06/27 05:48:31;;;;;;;7.42;2.42;;;;;;;20.23;90.89;100781.79;1785783;80;21154;-58
2022/06/27 05:51:19;;;;;;;3.80;2.27;;;;;;;20.47;90.31;100788.84;1785653;79;21135;-58
2022/06/27 05:53:51;;;;;;;5.97;2.92;;;;;;;20.66;89.89;100795.80;1785846;80;21120;-57
2022/06/27 05:56:20;;;;;;;4.10;2.27;;;;;;;20.88;89.62;100802.93;1785965;79;21084;-57
2022/06/27 05:58:50;;;;;;;2.62;1.75;;;;;;;21.23;89.42;100803.66;1785776;80;21085;-57
2022/06/27 06:01:19;;;;;;;3.37;1.70;;;;;;;21.40;89.14;100805.30;1784153;79;21051;-61
2022/06/27 06:03:48;;;;;;;4.42;2.15;;;;;;;21.58;88.67;100800.27;1847881;77;21088;-63
2022/06/27 06:06:17;;;;;;;2.17;1.55;;;;;;;21.80;88.25;100803.81;1800327;79;21539;-64
2022/06/27 06:08:47;;;;;;;6.12;2.15;;;;;;;21.94;87.97;100802.11;1811156;78;21570;-63
2022/06/27 06:11:15;;;;;;;3.20;2.10;;;;;;;22.55;87.76;100799.10;1826328;78;21174;-63
2022/06/27 06:13:44;;;;;;;2.00;1.32;;;;;;;23.58;86.63;100791.62;1826248;78;21115;-63
2022/06/27 06:16:16;;;;;;;14.95;2.67;;;;;;;23.92;85.30;100785.78;1826228;77;21209;-63
2022/06/27 06:18:44;;;;;;;3.60;1.80;;;;;;;23.94;85.66;100783.80;1826004;78;21135;-63
2022/06/27 06:21:13;;;;;;;2.72;1.70;;;;;;;23.94;85.56;100783.80;1828382;78;21510;-63
2022/06/27 06:23:42;;;;;;;2.87;1.30;;;;;;;23.99;85.25;100788.24;1830263;78;21067;-64
2022/06/27 06:26:14;;;;;;;2.15;1.02;;;;;;;24.54;84.54;100801.79;1830133;77;21094;-64
2022/06/27 06:28:42;;;;;;;1.67;1.12;;;;;;;24.86;82.44;100801.81;1830192;78;21068;-64
2022/06/27 06:31:15;;;;;;;3.08;1.17;;;;;;;25.19;82.19;100806.20;1830418;78;21502;-63
2022/06/27 06:33:42;;;;;;;1.70;1.20;;;;;;;24.79;81.40;100807.48;1830015;78;21161;-64
2022/06/27 06:36:11;;;;;;;1.55;1.32;;;;;;;24.48;80.94;100809.09;1830269;78;21529;-63
2022/06/27 06:38:40;;;;;;;1.82;0.98;;;;;;;24.18;80.38;100812.87;1830389;77;21091;-63
2022/06/27 06:41:08;;;;;;;2.90;1.27;;;;;;;23.87;80.09;100820.69;1830416;78;21505;-64
2022/06/27 06:43:37;;;;;;;5.15;1.37;;;;;;;23.64;79.99;100812.55;1830218;77;21098;-63
2022/06/27 06:46:09;;;;;;;4.78;1.80;;;;;;;23.33;79.45;100815.38;1827926;77;21076;-63
2022/06/27 06:48:40;;;;;;;7.62;3.87;;;;;;;23.01;79.44;100815.11;1828018;78;21107;-63
2022/06/27 06:51:12;;;;;;;14.28;3.83;;;;;;;22.75;79.38;100818.30;1830382;78;21067;-63
2022/06/27 06:53:41;;;;;;;15.60;3.65;;;;;;;22.59;79.23;100823.83;1830224;78;21043;-64
2022/06/27 06:56:10;;;;;;;8.58;2.20;;;;;;;22.46;79.15;100828.09;1830367;78;21571;-65
2022/06/27 06:58:39;;;;;;;11.90;2.60;;;;;;;22.38;79.13;100829.27;1830442;78;21510;-63
2022/06/27 07:01:08;;;;;;;9.28;3.02;;;;;;;22.31;79.12;100834.30;1830319;78;21067;-63
2022/06/27 07:03:38;;;;;;;8.20;4.72;;;;;;;22.31;79.21;100832.47;1830367;78;21583;-62
2022/06/27 07:06:06;;;;;;;6.75;3.30;;;;;;;22.29;79.18;100831.75;1830299;78;21545;-63
2022/06/27 07:08:37;;;;;;;7.50;3.60;;;;;;;22.29;79.06;100834.44;1798279;78;21031;-63
2022/06/27 07:11:08;;;;;;;5.87;3.08;;;;;;;22.32;78.94;100832.84;1830246;77;21070;-63
2022/06/27 07:13:38;;;;;;;9.78;3.33;;;;;;;22.43;78.92;100839.08;1830244;78;21130;-63
2022/06/27 07:16:07;;;;;;;6.35;3.12;;;;;;;22.53;78.74;100831.94;1830315;78;21546;-62
2022/06/27 07:18:37;;;;;;;6.97;2.77;;;;;;;22.62;78.51;100830.28;1830251;78;21508;-64
2022/06/27 07:21:06;;;;;;;4.83;2.75;;;;;;;22.69;77.95;100835.47;1830285;77;21047;-59
2022/06/27 07:23:35;;;;;;;8.75;3.20;;;;;;;22.75;77.48;100831.72;1830248;78;21075;-62
2022/06/27 07:26:03;;;;;;;6.65;3.37;;;;;;;22.90;76.83;100835.37;1830216;78;21149;-62
2022/06/27 07:28:32;;;;;;;8.45;3.05;;;;;;;23.09;76.34;100838.14;1830276;78;21086;-63
2022/06/27 07:31:01;;;;;;;7.55;3.47;;;;;;;23.56;76.27;100839.30;1830299;77;21071;-62
2022/06/27 07:33:30;;;;;;;6.50;3.27;;;;;;;24.06;75.81;100844.49;1830126;78;21561;-63
2022/06/27 07:36:00;;;;;;;6.35;2.83;;;;;;;24.41;75.23;100849.20;1830258;77;21133;-63
2022/06/27 07:38:32;;;;;;;6.83;2.35;;;;;;;24.45;73.84;100853.78;1827555;76;21087;-64
2022/06/27 07:41:00;;;;;;;5.60;2.05;;;;;;;24.30;73.38;100859.30;1821118;78;21141;-63
2022/06/27 07:43:29;;;;;;;7.17;2.20;;;;;;;24.14;73.47;100857.21;1821124;79;21059;-61
2022/06/27 07:45:58;;;;;;;2.42;1.50;;;;;;;24.09;73.31;100860.35;1820903;79;21091;-67
2022/06/27 07:48:27;;;;;;;5.33;1.60;;;;;;;24.08;72.88;100861.33;1821165;79;21502;-63
2022/06/27 07:50:59;;;;;;;5.12;2.60;;;;;;;24.16;72.54;100864.16;1821072;79;21161;-63
2022/06/27 07:53:48;;;;;;;2.77;1.98;;;;;;;24.12;72.60;100860.04;1821279;78;21501;-63
2022/06/27 07:59:00;;;;;;;2.13;1.03;;;;;;;23.81;72.21;100858.04;1859190;77;21622;-60
2022/06/27 08:01:28;;;;;;;2.75;1.55;;;;;;;23.85;72.07;100858.13;1858953;77;21156;-59
2022/06/27 08:03:59;;;;;;;7.92;1.95;;;;;;;24.04;72.03;100857.24;1858321;76;21106;-62
2022/06/27 08:06:30;;;;;;;6.53;1.60;;;;;;;24.34;71.87;100867.42;1858775;77;21027;-63
2022/06/27 08:09:01;;;;;;;7.42;1.45;;;;;;;24.44;71.46;100865.06;1858831;77;21026;-59
2022/06/27 08:11:33;;;;;;;3.60;2.00;;;;;;;24.42;71.26;100872.91;1858981;77;21022;-62
2022/06/27 08:14:05;;;;;;;10.30;2.33;;;;;;;24.46;70.91;100870.30;1859219;77;21500;-60
2022/06/27 08:16:37;;;;;;;7.90;3.08;;;;;;;24.71;70.47;100878.72;1859070;77;21528;-63
2022/06/27 08:19:07;;;;;;;8.55;2.12;;;;;;;24.68;70.20;100870.45;1858805;77;21038;-63
2022/06/27 08:21:37;;;;;;;5.78;2.87;;;;;;;24.62;69.79;100872.38;1859009;77;21532;-62
2022/06/27 08:24:12;;;;;;;5.85;3.20;;;;;;;24.57;69.85;100870.14;1858960;77;21070;-63
2022/06/27 08:26:41;;;;;;;4.62;3.05;;;;;;;24.49;69.77;100876.71;1858838;77;21128;-62
2022/06/27 08:29:09;;;;;;;2.83;1.40;;;;;;;24.63;69.96;100883.00;1858840;77;21551;-63
2022/06/27 08:31:39;;;;;;;3.37;1.67;;;;;;;24.75;69.90;100879.64;1858878;77;21070;-64
2022/06/27 08:34:09;;;;;;;4.62;2.22;;;;;;;24.83;69.70;100885.11;1858910;77;21054;-63
2022/06/27 08:36:40;;;;;;;1.70;1.30;;;;;;;24.90;69.33;100884.03;1858962;77;21123;-62
2022/06/27 08:39:19;;;;;;;1.98;1.47;;;;;;;25.18;69.32;100879.45;1858931;77;21050;-62
2022/06/27 08:41:47;;;;;;;2.40;1.27;;;;;;;25.38;68.97;100880.20;1858723;77;21572;-61
2022/06/27 08:44:17;;;;;;;3.62;2.05;;;;;;;25.55;68.47;100887.11;1858715;77;21556;-63
2022/06/27 08:46:46;;;;;;;6.03;2.47;;;;;;;25.52;68.04;100891.45;1858974;77;21484;-60
2022/06/27 08:49:16;;;;;;;3.33;2.15;;;;;;;25.47;67.68;100885.66;1858889;77;21583;-60
2022/06/27 08:51:45;;;;;;;3.33;2.17;;;;;;;25.61;67.62;100876.53;1859133;77;21555;-61
2022/06/27 08:54:13;;;;;;;2.27;1.32;;;;;;;26.29;67.24;100868.83;1858886;77;21453;-61
2022/06/27 08:56:43;;;;;;;2.02;1.32;;;;;;;26.34;66.40;100868.69;1858767;77;21030;-59
2022/06/27 08:59:12;;;;;;;3.62;1.40;;;;;;;26.38;66.17;100863.31;1863718;75;21525;-59
2022/06/27 09:01:40;;;;;;;1.72;1.15;;;;;;;26.41;66.14;100859.94;1865142;77;21042;-60
2022/06/27 09:04:09;;;;;;;2.22;1.42;;;;;;;26.33;66.32;100855.34;1865185;77;21058;-60
2022/06/27 09:06:45;;;;;;;1.22;1.12;;;;;;;26.03;66.26;100853.99;1865267;77;21453;-60
2022/06/27 09:09:15;;;;;;;2.33;1.32;;;;;;;25.65;66.01;100857.36;1865076;77;21046;-61
2022/06/27 09:11:46;;;;;;;4.00;1.80;;;;;;;25.34;66.13;100855.92;1865245;77;21049;-60
2022/06/27 09:14:39;;;;;;;1.07;0.98;;;;;;;25.20;66.03;100852.37;1865284;77;21128;-60
2022/06/27 09:17:12;;;;;;;1.67;0.93;;;;;;;25.57;66.08;100855.45;1865410;77;21531;-60
2022/06/27 09:19:56;;;;;;;4.08;0.93;;;;;;;26.06;65.53;100848.25;1865052;77;21531;-61
2022/06/27 09:22:26;;;;;;;;;;;;;;;26.09;64.09;100842.55;1868057;77;21496;-60
2022/06/27 09:25:13;;;;;;;1.67;0.72;;;;;;;25.97;63.49;100847.37;1865280;77;20153;-61
2022/06/27 09:27:47;;;;;;;0.90;0.70;;;;;;;25.86;63.85;100851.62;1865370;77;21057;-60
2022/06/27 09:30:25;;;;;;;1.15;0.85;;;;;;;25.82;63.90;100852.44;1865098;77;21215;-61
2022/06/27 09:33:04;;;;;;;6.72;1.57;;;;;;;25.40;63.39;100848.55;1865347;77;21472;-64
2022/06/27 09:35:33;;;;;;;1.45;0.90;;;;;;;25.18;64.21;100848.47;1864181;75;21046;-63
2022/06/27 09:38:04;;;;;;;0.93;0.70;;;;;;;25.10;64.63;100846.19;1865562;76;21481;-63
2022/06/27 09:40:34;;;;;;;0.60;0.60;;;;;;;25.13;64.87;100851.28;1864914;75;21115;-61
2022/06/27 09:43:04;;;;;;;1.05;0.90;;;;;;;25.54;64.83;100847.15;1865148;77;21050;-61
2022/06/27 09:45:34;;;;;;;0.90;0.70;;;;;;;26.05;64.43;100853.33;1865180;77;21477;-61
2022/06/27 09:48:05;;;;;;;5.03;0.72;;;;;;;26.26;63.82;100852.94;1865343;77;21409;-61
2022/06/27 09:50:39;;;;;;;4.55;0.80;;;;;;;26.20;63.56;100855.27;1865166;77;21073;-62
2022/06/27 09:53:08;;;;;;;1.30;0.80;;;;;;;26.06;63.57;100862.62;1865211;76;21066;-63
2022/06/27 09:55:38;;;;;;;3.10;0.90;;;;;;;26.00;63.25;100856.48;1865331;77;21054;-62
2022/06/27 10:01:04;;;;;;;0.85;0.70;;;;;;;26.07;63.13;100851.31;1898452;74;21093;-61
2022/06/27 10:03:35;;;;;;;2.05;1.30;;;;;;;26.36;62.90;100854.53;1917982;74;21171;-61
2022/06/27 10:08:54;;;;;;;3.08;0.70;;;;;;;27.59;61.99;100847.33;1863330;76;21094;-58
2022/06/27 10:11:23;;;;;;;2.52;0.90;;;;;;;27.40;60.74;100847.16;1863421;77;21058;-56
2022/06/27 10:14:23;;;;;;;5.25;0.80;;;;;;;27.25;60.79;100847.45;1863482;77;21465;-54
2022/06/27 10:16:54;;;;;;;4.35;0.60;;;;;;;27.07;60.86;100844.88;1863434;77;21112;-55
2022/06/27 10:19:27;;;;;;;1.12;0.60;;;;;;;26.68;60.61;100837.33;1863308;77;21122;-57
2022/06/27 10:21:57;;;;;;;2.27;0.80;;;;;;;26.41;60.60;100840.53;1863521;77;21469;-58
2022/06/27 10:24:29;;;;;;;0.65;0.55;;;;;;;26.18;60.69;100842.95;1863378;77;21543;-56
2022/06/27 10:27:00;;;;;;;0.80;0.70;;;;;;;25.99;61.08;100838.11;1863655;77;21543;-56
2022/06/27 10:29:33;;;;;;;4.25;0.90;;;;;;;26.00;61.30;100837.59;1863435;77;21152;-56
2022/06/27 10:32:10;;;;;;;0.70;0.70;;;;;;;26.25;61.48;100844.52;1863436;77;21061;-55
2022/06/27 10:34:49;;;;;;;1.22;0.88;;;;;;;26.42;60.76;100838.19;1863333;77;21058;-56
2022/06/27 10:37:26;;;;;;;0.88;0.70;;;;;;;26.52;60.75;100833.53;1861908;75;21046;-55
2022/06/27 10:40:19;;;;;;;0.80;0.80;;;;;;;26.51;60.18;100827.77;1863336;77;21520;-56
2022/06/27 10:42:53;;;;;;;1.00;0.62;;;;;;;26.38;60.15;100829.56;1862680;77;21508;-56
2022/06/27 10:45:31;;;;;;;1.82;0.80;;;;;;;26.47;60.25;100826.41;1863426;77;21093;-56
2022/06/27 10:48:03;;;;;;;2.33;0.88;;;;;;;26.50;60.12;100826.06;1862349;77;21030;-56
2022/06/27 10:50:40;;;;;;;1.85;0.80;;;;;;;26.80;59.96;100831.98;1820235;79;21055;-58
2022/06/27 10:53:25;;;;;;;1.92;0.72;;;;;;;27.11;59.59;100832.72;1828313;77;21041;-55
2022/06/27 10:55:53;;;;;;;1.35;0.75;;;;;;;27.41;59.00;100825.01;1817377;78;21072;-56
2022/06/27 10:58:25;;;;;;;1.62;0.80;;;;;;;27.49;58.80;100822.33;1828771;78;21126;-56
2022/06/27 11:00:55;;;;;;;4.83;0.95;;;;;;;27.54;58.43;100819.97;1828105;78;21161;-55
2022/06/27 11:03:26;;;;;;;0.62;0.53;;;;;;;27.59;58.44;100822.98;1826498;78;21053;-57
2022/06/27 11:05:58;;;;;;;1.25;0.90;;;;;;;27.49;58.32;100819.63;1828740;78;21050;-56
2022/06/27 11:08:30;;;;;;;4.37;0.80;;;;;;;27.29;58.03;100816.39;1823864;78;21168;-56
2022/06/27 11:10:59;;;;;;;2.55;0.72;;;;;;;27.11;57.88;100819.20;1829327;77;21021;-56
2022/06/27 11:13:49;;;;;;;1.32;0.70;;;;;;;27.03;57.88;100821.39;1869780;77;21068;-56
2022/06/27 11:16:24;;;;;;;2.37;0.85;;;;;;;26.87;57.58;100818.16;1869665;77;21110;-55
2022/06/27 11:19:02;;;;;;;2.92;0.93;;;;;;;26.92;57.83;100818.48;1869859;77;21049;-55
2022/06/27 11:21:36;;;;;;;1.67;0.70;;;;;;;26.76;57.47;100822.48;1869894;76;21056;-54
2022/06/27 11:24:24;;;;;;;1.12;0.78;;;;;;;26.64;57.72;100819.77;1869723;77;21021;-55
2022/06/27 11:26:54;;;;;;;4.05;0.80;;;;;;;26.74;57.89;100819.11;1837289;78;21064;-56
2022/06/27 11:32:15;;;;;;;0.85;0.50;;;;;;;27.06;57.66;100818.37;1837590;78;21029;-59
2022/06/27 11:34:52;;;;;;;0.75;0.60;;;;;;;26.58;56.98;100824.77;1837689;78;21060;-59
2022/06/27 11:37:23;;;;;;;3.17;0.60;;;;;;;26.26;57.55;100820.55;1837520;78;21120;-59
2022/06/27 11:40:09;;;;;;;0.72;0.60;;;;;;;25.98;57.86;100813.47;1837526;78;21068;-59
2022/06/27 11:42:45;;;;;;;0.50;0.50;;;;;;;25.92;58.25;100814.59;1837400;78;21551;-59
2022/06/27 11:45:12;;;;;;;0.85;0.50;;;;;;;25.86;58.64;100815.20;1836745;77;21130;-59
2022/06/27 11:47:43;;;;;;;1.42;0.80;;;;;;;25.65;58.64;100810.17;1838133;78;21120;-59
2022/06/27 11:50:15;;;;;;;1.12;0.80;;;;;;;25.46;59.03;100808.52;1840499;78;21048;-59
2022/06/27 11:52:46;;;;;;;4.25;0.98;;;;;;;25.31;59.41;100806.87;1840802;78;21142;-59
2022/06/27 11:55:18;;;;;;;3.58;0.75;;;;;;;25.22;59.80;100809.95;1840374;78;21065;-59
2022/06/27 11:57:52;;;;;;;0.40;0.40;;;;;;;25.21;59.95;100806.89;1840556;77;21104;-60
2022/06/27 12:00:25;;;;;;;0.60;0.60;;;;;;;25.21;59.92;100814.50;1840403;78;21053;-59